createdAt,value
2022-09-20T00:01:50.458Z,98939.13
2022-09-20T00:04:35.844Z,98948.63
2022-09-20T00:07:21.100Z,98937.53
2022-09-20T00:10:06.457Z,98946.63
2022-09-20T00:12:52.384Z,98939.53
2022-09-20T00:15:43.779Z,98940.31
2022-09-20T00:18:29.494Z,98943.06
2022-09-20T00:21:17.147Z,98945.47
2022-09-20T00:24:03.151Z,98945.47
2022-09-20T00:26:48.841Z,98947.06
2022-09-20T00:29:34.084Z,98948.25
2022-09-20T00:32:19.578Z,98948.69
2022-09-20T00:35:08.522Z,98952.59
2022-09-20T00:37:53.984Z,98945.47
2022-09-20T00:40:44.289Z,98952.22
2022-09-20T00:43:41.454Z,98947.88
2022-09-20T00:46:35.885Z,98946.69
2022-09-20T00:49:27.624Z,98951.84
2022-09-20T00:52:13.423Z,98949.44
2022-09-20T00:55:01.031Z,98944.31
2022-09-20T00:57:46.897Z,98941.56
2022-09-20T01:00:32.415Z,98929.31
2022-09-20T01:03:22.976Z,98933.25
2022-09-20T01:06:13.783Z,98942.34
2022-09-20T01:09:03.108Z,98942.78
2022-09-20T01:11:50.663Z,98945.53
2022-09-20T01:14:36.224Z,98941.97
2022-09-20T01:17:24.980Z,98944.72
2022-09-20T01:20:24.870Z,98943.94
2022-09-20T01:23:32.093Z,98943.16
2022-09-20T01:26:37.699Z,98944.72
2022-09-20T01:30:03.223Z,98953.03
2022-09-20T01:33:06.833Z,98948.72
2022-09-20T01:35:54.311Z,98948.72
2022-09-20T01:38:54.959Z,98947.94
2022-09-20T01:41:57.484Z,98943.94
2022-09-20T01:45:18.197Z,98943.16
2022-09-20T01:48:39.382Z,98949.47
2022-09-20T01:51:45.990Z,98947.94
2022-09-20T01:54:58.083Z,98949.88
2022-09-20T01:57:56.942Z,98951.06
2022-09-20T02:01:14.757Z,98956.59
2022-09-20T02:04:22.201Z,98950.69
2022-09-20T02:07:23.002Z,98951.06
2022-09-20T02:10:47.311Z,98960.97
2022-09-20T02:13:53.710Z,98956.59
2022-09-20T02:16:55.777Z,98961.38
2022-09-20T02:19:53.276Z,98954.25
2022-09-20T02:22:41.473Z,98959.00
2022-09-20T02:25:45.635Z,98963.34
2022-09-20T02:28:49.442Z,98960.22
2022-09-20T02:31:53.197Z,98957.44
2022-09-20T02:35:20.076Z,98953.47
2022-09-20T02:38:43.197Z,98963.75
2022-09-20T02:42:06.435Z,98964.13
2022-09-20T02:45:04.250Z,98969.63
2022-09-20T02:47:49.799Z,98971.63
2022-09-20T02:50:35.327Z,98966.50
2022-09-20T02:53:35.950Z,98961.34
2022-09-20T02:56:32.762Z,98970.44
2022-09-20T02:59:25.845Z,98970.84
2022-09-20T03:02:25.006Z,98977.16
2022-09-20T03:05:26.574Z,98970.06
2022-09-20T03:08:28.226Z,98971.63
2022-09-20T03:11:25.849Z,98977.16
2022-09-20T03:14:10.878Z,98976.38
2022-09-20T03:17:24.286Z,98981.13
2022-09-20T03:20:31.685Z,98985.88
2022-09-20T03:23:28.473Z,98984.28
2022-09-20T03:26:31.382Z,98990.59
2022-09-20T03:29:37.180Z,98990.22
2022-09-20T03:33:00.233Z,98989.06
2022-09-20T03:35:48.430Z,98992.22
2022-09-20T03:38:46.252Z,98989.81
2022-09-20T03:41:37.155Z,99000.13
2022-09-20T03:44:50.642Z,98994.56
2022-09-20T03:48:01.059Z,98991.41
2022-09-20T03:51:04.449Z,98985.91
2022-09-20T03:54:12.350Z,98976.44
2022-09-20T03:57:28.752Z,98975.59
2022-09-20T04:00:38.564Z,98974.00
2022-09-20T04:03:35.520Z,98979.06
2022-09-20T04:06:59.404Z,98970.72
2022-09-20T04:09:53.777Z,98980.94
2022-09-20T04:12:50.164Z,98974.56
2022-09-20T04:16:23.390Z,98980.06
2022-09-20T04:19:33.391Z,98981.63
2022-09-20T04:22:22.754Z,98978.84
2022-09-20T04:25:20.020Z,98991.88
2022-09-20T04:28:14.019Z,98992.66
2022-09-20T04:31:07.199Z,98994.22
2022-09-20T04:33:57.438Z,98997.34
2022-09-20T04:37:05.076Z,99001.75
2022-09-20T04:40:05.655Z,99006.88
2022-09-20T04:43:06.567Z,99016.38
2022-09-20T04:46:06.888Z,99014.81
2022-09-20T04:49:13.841Z,99013.16
2022-09-20T04:52:04.151Z,99005.56
2022-09-20T04:55:04.626Z,99005.94
2022-09-20T04:58:09.149Z,99011.84
2022-09-20T05:01:17.153Z,99012.59
2022-09-20T05:04:18.436Z,99017.66
2022-09-20T05:07:09.823Z,99020.88
2022-09-20T05:10:24.402Z,99017.28
2022-09-20T05:13:15.903Z,99027.22
2022-09-20T05:16:23.218Z,99026.03
2022-09-20T05:19:23.810Z,99031.22
2022-09-20T05:22:27.948Z,99028.84
2022-09-20T05:25:46.866Z,99032.81
2022-09-20T05:28:53.751Z,99045.09
2022-09-20T05:32:18.371Z,99038.78
2022-09-20T05:35:14.840Z,99046.72
2022-09-20T05:38:13.598Z,99040.00
2022-09-20T05:41:19.017Z,99045.16
2022-09-20T05:44:19.859Z,99053.88
2022-09-20T05:47:26.333Z,99055.03
2022-09-20T05:50:29.702Z,99061.03
2022-09-20T05:53:39.418Z,99063.00
2022-09-20T05:56:43.069Z,99061.03
2022-09-20T05:59:49.477Z,99064.59
2022-09-20T06:02:52.173Z,99069.34
2022-09-20T06:05:40.480Z,99067.78
2022-09-20T06:08:46.012Z,99075.66
2022-09-20T06:11:56.339Z,99081.66
2022-09-20T06:14:42.134Z,99085.59
2022-09-20T06:18:05.186Z,99084.03
2022-09-20T06:21:04.028Z,99082.06
2022-09-20T06:23:49.624Z,99085.66
2022-09-20T06:26:37.400Z,99080.88
2022-09-20T06:29:31.075Z,99087.63
2022-09-20T06:32:17.670Z,99083.28
2022-09-20T06:35:04.645Z,99088.03
2022-09-20T06:38:22.899Z,99095.91
2022-09-20T06:41:28.610Z,99092.81
2022-09-20T06:44:14.760Z,99090.03
2022-09-20T06:47:00.217Z,99090.81
2022-09-20T06:49:46.793Z,99093.22
2022-09-20T06:52:32.967Z,99102.69
2022-09-20T06:55:29.316Z,99102.28
2022-09-20T06:58:15.291Z,99095.59
2022-09-20T07:01:00.511Z,99102.69
2022-09-20T07:03:45.993Z,99100.34
2022-09-20T07:06:31.222Z,99108.22
2022-09-20T07:09:17.218Z,99107.06
2022-09-20T07:12:02.866Z,99113.00
2022-09-20T07:14:48.124Z,99112.59
2022-09-20T07:17:33.884Z,99113.81
2022-09-20T07:20:21.441Z,99119.34
2022-09-20T07:23:06.875Z,99118.16
2022-09-20T07:25:52.833Z,99122.50
2022-09-20T07:28:38.289Z,99123.69
2022-09-20T07:31:25.589Z,99121.75
2022-09-20T07:34:11.115Z,99131.63
2022-09-20T07:36:57.339Z,99134.38
2022-09-20T07:39:42.949Z,99131.25
2022-09-20T07:42:29.129Z,99139.16
2022-09-20T07:45:14.525Z,99137.97
2022-09-20T07:48:02.534Z,99145.09
2022-09-20T07:50:59.198Z,99146.66
2022-09-20T07:53:44.758Z,99147.06
2022-09-20T07:56:29.880Z,99151.00
2022-09-20T07:59:15.675Z,99155.75
2022-09-20T08:02:01.133Z,99151.81
2022-09-20T08:04:49.920Z,99154.59
2022-09-20T08:07:35.209Z,99155.78
2022-09-20T08:10:20.396Z,99154.59
2022-09-20T08:16:14.110Z,99161.31
2022-09-20T08:19:02.831Z,99163.69
2022-09-20T08:21:50.324Z,99163.31
2022-09-20T08:24:35.705Z,99163.69
2022-09-20T08:27:20.940Z,99164.88
2022-09-20T08:30:06.850Z,99163.69
2022-09-20T08:32:55.430Z,99174.34
2022-09-20T08:35:40.548Z,99159.72
2022-09-20T08:41:48.626Z,99164.88
2022-09-20T08:44:36.946Z,99167.66
2022-09-20T08:47:26.389Z,99176.34
2022-09-20T08:50:18.704Z,99173.19
2022-09-20T08:53:05.245Z,99179.13
2022-09-20T08:55:50.540Z,99184.28
2022-09-20T08:58:36.518Z,99189.00
2022-09-20T09:01:25.974Z,99184.28
2022-09-20T09:04:13.417Z,99198.50
2022-09-20T09:06:58.661Z,99194.59
2022-09-20T09:09:46.662Z,99198.13
2022-09-20T09:12:35.759Z,99204.06
2022-09-20T09:15:43.529Z,99205.66
2022-09-20T09:18:51.712Z,99206.44
2022-09-20T09:21:37.223Z,99202.09
2022-09-20T09:24:24.888Z,99210.41
2022-09-20T09:27:19.188Z,99204.88
2022-09-20T09:30:20.697Z,99199.34
2022-09-20T09:33:23.416Z,99203.28
2022-09-20T09:36:15.164Z,99205.28
2022-09-20T09:39:38.048Z,99200.13
2022-09-20T09:42:28.805Z,99201.72
2022-09-20T09:45:41.027Z,99202.09
2022-09-20T09:48:31.188Z,99193.00
2022-09-20T09:51:19.903Z,99187.44
2022-09-20T09:54:07.817Z,99199.34
2022-09-20T09:57:02.398Z,99198.13
2022-09-20T10:00:02.621Z,99203.66
2022-09-20T10:03:11.945Z,99194.97
2022-09-20T10:06:12.547Z,99192.19
2022-09-20T10:09:16.619Z,99195.75
2022-09-20T10:12:14.773Z,99196.53
2022-09-20T10:15:13.358Z,99190.59
2022-09-20T10:18:08.559Z,99202.06
2022-09-20T10:21:15.850Z,99195.34
2022-09-20T10:24:13.694Z,99204.44
2022-09-20T10:27:48.297Z,99206.41
2022-09-20T10:30:58.415Z,99199.28
2022-09-20T10:34:16.460Z,99204.44
2022-09-20T10:37:02.211Z,99202.84
2022-09-20T10:39:59.256Z,99208.75
2022-09-20T10:43:09.703Z,99201.66
2022-09-20T10:46:36.438Z,99209.19
2022-09-20T10:49:39.611Z,99208.38
2022-09-20T10:52:42.415Z,99209.59
2022-09-20T10:55:47.386Z,99212.72
2022-09-20T10:58:49.354Z,99209.56
2022-09-20T11:02:06.275Z,99205.59
2022-09-20T11:05:26.117Z,99201.25
2022-09-20T11:08:13.924Z,99197.69
2022-09-20T11:11:10.557Z,99205.22
2022-09-20T11:14:20.282Z,99212.72
2022-09-20T11:17:18.659Z,99227.75
2022-09-20T11:20:15.287Z,99234.09
2022-09-20T11:23:10.353Z,99228.13
2022-09-20T11:26:02.057Z,99228.13
2022-09-20T11:28:54.110Z,99224.19
2022-09-20T11:31:46.256Z,99230.09
2022-09-20T11:34:37.318Z,99231.72
2022-09-20T11:37:30.314Z,99233.28
2022-09-20T11:40:30.297Z,99230.09
2022-09-20T11:43:18.412Z,99228.53
2022-09-20T11:46:07.869Z,99221.03
2022-09-20T11:49:04.712Z,99218.25
2022-09-20T11:52:09.301Z,99206.38
2022-09-20T11:55:10.845Z,99207.19
2022-09-20T11:58:06.861Z,99207.19
2022-09-20T12:00:56.616Z,99217.44
2022-09-20T12:03:50.962Z,99213.91
2022-09-20T12:06:39.995Z,99215.88
2022-09-20T12:09:30.538Z,99214.69
2022-09-20T12:12:23.211Z,99210.34
2022-09-20T12:15:27.673Z,99211.91
2022-09-20T12:18:33.044Z,99215.47
2022-09-20T12:21:20.764Z,99211.09
2022-09-20T12:24:19.069Z,99215.06
2022-09-20T12:27:43.991Z,99218.59
2022-09-20T12:30:30.962Z,99220.59
2022-09-20T12:33:20.821Z,99213.88
2022-09-20T12:36:16.296Z,99217.44
2022-09-20T12:39:17.554Z,99209.56
2022-09-20T12:42:12.263Z,99209.94
2022-09-20T12:45:17.613Z,99196.88
2022-09-20T12:48:03.199Z,99208.34
2022-09-20T12:51:43.098Z,99202.81
2022-09-20T12:54:28.609Z,99206.72
2022-09-20T12:57:23.839Z,99196.81
2022-09-20T13:00:36.309Z,99203.06
2022-09-20T13:03:31.980Z,99200.28
2022-09-20T13:06:20.682Z,99190.75
2022-09-20T13:09:09.463Z,99201.03
2022-09-20T13:12:01.006Z,99195.09
2022-09-20T13:14:47.516Z,99211.28
2022-09-20T13:17:35.027Z,99204.56
2022-09-20T13:20:34.990Z,99203.72
2022-09-20T13:23:26.866Z,99204.47
2022-09-20T13:26:13.572Z,99204.84
2022-09-20T13:29:01.801Z,99210.41
2022-09-20T13:31:47.544Z,99213.16
2022-09-20T13:34:33.158Z,99210.78
2022-09-20T13:37:23.796Z,99208.38
2022-09-20T13:40:20.971Z,99218.66
2022-09-20T13:43:24.444Z,99208.75
2022-09-20T13:46:16.466Z,99213.09
2022-09-20T13:49:20.939Z,99215.84
2022-09-20T13:52:24.268Z,99214.63
2022-09-20T13:55:27.374Z,99211.84
2022-09-20T13:58:24.194Z,99216.19
2022-09-20T14:01:32.292Z,99216.19
2022-09-20T14:04:23.787Z,99221.28
2022-09-20T14:07:10.103Z,99216.13
2022-09-20T14:09:56.683Z,99216.91
2022-09-20T14:12:49.585Z,99224.81
2022-09-20T14:15:39.146Z,99221.22
2022-09-20T14:18:24.911Z,99218.44
2022-09-20T14:21:11.970Z,99239.38
2022-09-20T14:24:23.840Z,99245.69
2022-09-20T14:27:16.704Z,99248.06
2022-09-20T14:30:03.867Z,99244.44
2022-09-20T14:32:56.487Z,99255.53
2022-09-20T14:35:48.869Z,99268.22
2022-09-20T14:38:34.214Z,99266.63
2022-09-20T14:41:40.443Z,99272.53
2022-09-20T14:44:33.761Z,99274.53
2022-09-20T14:47:37.995Z,99280.09
2022-09-20T14:50:36.726Z,99285.63
2022-09-20T14:53:26.878Z,99288.78
2022-09-20T14:56:15.392Z,99285.63
2022-09-20T14:59:08.062Z,99283.25
2022-09-20T15:02:14.794Z,99284.06
2022-09-20T15:05:00.950Z,99277.72
2022-09-20T15:07:47.713Z,99265.06
2022-09-20T15:10:32.932Z,99255.16
2022-09-20T15:13:18.574Z,99257.56
2022-09-20T15:16:04.197Z,99258.00
2022-09-20T15:18:49.642Z,99258.00
2022-09-20T15:21:35.138Z,99263.94
2022-09-20T15:24:20.597Z,99272.66
2022-09-20T15:27:07.148Z,99280.19
2022-09-20T15:29:52.563Z,99279.81
2022-09-20T15:32:37.990Z,99273.88
2022-09-20T15:35:23.641Z,99279.44
2022-09-20T15:38:11.674Z,99276.63
2022-09-20T15:41:00.724Z,99283.34
2022-09-20T15:43:47.235Z,99286.47
2022-09-20T15:46:33.365Z,99281.72
2022-09-20T15:49:18.938Z,99288.84
2022-09-20T15:52:05.313Z,99286.47
2022-09-20T15:54:51.801Z,99285.72
2022-09-20T15:57:37.073Z,99299.94
2022-09-20T16:00:22.442Z,99290.00
2022-09-20T16:03:08.050Z,99294.34
2022-09-20T16:06:04.415Z,99300.66
2022-09-20T16:08:50.865Z,99291.13
2022-09-20T16:11:37.330Z,99291.91
2022-09-20T16:14:22.907Z,99297.81
2022-09-20T16:17:09.719Z,99289.50
2022-09-20T16:19:55.341Z,99298.63
2022-09-20T16:22:41.251Z,99314.06
2022-09-20T16:25:26.766Z,99316.78
2022-09-20T16:28:14.070Z,99310.81
2022-09-20T16:31:00.540Z,99322.72
2022-09-20T16:33:45.690Z,99331.03
2022-09-20T16:36:32.994Z,99334.22
2022-09-20T16:39:19.613Z,99332.22
2022-09-20T16:42:07.506Z,99331.44
2022-09-20T16:44:53.134Z,99340.13
2022-09-20T16:47:41.042Z,99332.19
2022-09-20T16:50:26.365Z,99344.06
2022-09-20T16:53:11.673Z,99343.22
2022-09-20T16:55:56.938Z,99359.50
2022-09-20T16:58:44.489Z,99350.78
2022-09-20T17:01:31.965Z,99355.53
2022-09-20T17:04:19.142Z,99357.56
2022-09-20T17:07:05.798Z,99358.38
2022-09-20T17:09:51.632Z,99368.66
2022-09-20T17:12:42.623Z,99367.88
2022-09-20T17:15:28.524Z,99365.88
2022-09-20T17:18:15.724Z,99372.63
2022-09-20T17:21:15.615Z,99377.41
2022-09-20T17:24:01.073Z,99388.50
2022-09-20T17:26:46.704Z,99394.84
2022-09-20T17:29:32.089Z,99412.69
2022-09-20T17:32:19.448Z,99416.31
2022-09-20T17:35:05.883Z,99422.25
2022-09-20T17:37:52.028Z,99424.22
2022-09-20T17:40:37.489Z,99421.09
2022-09-20T17:43:22.843Z,99420.25
2022-09-20T17:46:12.015Z,99413.53
2022-09-20T17:49:01.179Z,99424.25
2022-09-20T17:51:52.058Z,99420.31
2022-09-20T17:54:37.583Z,99425.06
2022-09-20T17:57:24.456Z,99418.75
2022-09-20T18:00:10.662Z,99428.25
2022-09-20T18:02:56.128Z,99423.13
2022-09-20T18:05:41.530Z,99429.84
2022-09-20T18:08:26.799Z,99435.38
2022-09-20T18:11:12.186Z,99440.16
2022-09-20T18:13:58.739Z,99431.06
2022-09-20T18:16:44.423Z,99439.00
2022-09-20T18:19:33.946Z,99444.97
2022-09-20T18:22:19.761Z,99454.84
2022-09-20T18:25:05.321Z,99458.84
2022-09-20T18:27:50.908Z,99456.47
2022-09-20T18:30:36.017Z,99462.00
2022-09-20T18:33:21.213Z,99456.06
2022-09-20T18:36:06.802Z,99464.38
2022-09-20T18:38:54.910Z,99464.00
2022-09-20T18:41:41.317Z,99467.97
2022-09-20T18:44:33.805Z,99464.00
2022-09-20T18:47:19.522Z,99467.97
2022-09-20T18:50:05.598Z,99462.06
2022-09-20T18:52:51.344Z,99471.16
2022-09-20T18:55:37.664Z,99477.91
2022-09-20T18:58:24.564Z,99470.75
2022-09-20T19:01:36.664Z,99472.75
2022-09-20T19:04:35.505Z,99483.84
2022-09-20T19:07:50.744Z,99487.81
2022-09-20T19:10:46.843Z,99482.66
2022-09-20T19:13:50.573Z,99479.91
2022-09-20T19:16:41.804Z,99485.84
2022-09-20T19:19:56.204Z,99492.59
2022-09-20T19:22:49.191Z,99491.38
2022-09-20T19:25:47.479Z,99497.34
2022-09-20T19:28:33.275Z,99487.03
2022-09-20T19:31:33.317Z,99496.91
2022-09-20T19:34:21.392Z,99496.53
2022-09-20T19:37:24.985Z,99500.09
2022-09-20T19:40:26.125Z,99504.44
2022-09-20T19:43:27.912Z,99503.28
2022-09-20T19:47:01.456Z,99510.00
2022-09-20T19:49:55.285Z,99504.09
2022-09-20T19:52:41.341Z,99508.44
2022-09-20T19:55:27.068Z,99510.41
2022-09-20T19:58:14.339Z,99505.28
2022-09-20T20:00:59.833Z,99512.41
2022-09-20T20:03:47.873Z,99517.13
2022-09-20T20:07:19.440Z,99513.56
2022-09-20T20:10:31.420Z,99521.50
2022-09-20T20:14:00.023Z,99524.28
2022-09-20T20:17:22.919Z,99529.41
2022-09-20T20:20:17.852Z,99538.13
2022-09-20T20:23:15.591Z,99544.06
2022-09-20T20:26:22.150Z,99547.22
2022-09-20T20:29:09.980Z,99548.81
2022-09-20T20:31:55.152Z,99545.66
2022-09-20T20:34:40.611Z,99548.44
2022-09-20T20:37:28.175Z,99546.84
2022-09-20T20:40:14.038Z,99546.84
2022-09-20T20:43:02.026Z,99547.25
2022-09-20T20:45:51.023Z,99550.03
2022-09-20T20:48:37.161Z,99550.44
2022-09-20T20:51:22.947Z,99548.47
2022-09-20T20:54:10.054Z,99550.44
2022-09-20T20:56:55.297Z,99557.16
2022-09-20T20:59:40.511Z,99556.38
2022-09-20T21:02:25.843Z,99557.56
2022-09-20T21:05:10.975Z,99558.38
2022-09-20T21:07:57.821Z,99550.44
2022-09-20T21:10:42.985Z,99556.75
2022-09-20T21:13:30.049Z,99566.28
2022-09-20T21:16:18.053Z,99559.16
2022-09-20T21:19:04.912Z,99559.94
2022-09-20T21:21:50.454Z,99564.69
2022-09-20T21:24:35.849Z,99566.28
2022-09-20T21:27:21.185Z,99568.25
2022-09-20T21:30:07.313Z,99573.78
2022-09-20T21:32:56.098Z,99574.59
2022-09-20T21:35:41.374Z,99570.22
2022-09-20T21:38:30.395Z,99574.97
2022-09-20T21:41:19.871Z,99574.97
2022-09-20T21:44:06.535Z,99579.75
2022-09-20T21:46:51.806Z,99574.97
2022-09-20T21:49:36.936Z,99586.06
2022-09-20T21:52:22.144Z,99590.81
2022-09-20T21:55:10.736Z,99586.06
2022-09-20T21:57:56.229Z,99588.03
2022-09-20T22:00:41.552Z,99597.91
2022-09-20T22:03:35.047Z,99592.00
2022-09-20T22:06:32.397Z,99593.97
2022-09-20T22:09:19.343Z,99599.50
2022-09-20T22:12:04.953Z,99597.53
2022-09-20T22:14:50.285Z,99609.81
2022-09-20T22:17:35.628Z,99602.66
2022-09-20T22:20:20.945Z,99600.28
2022-09-20T22:23:06.082Z,99598.72
2022-09-20T22:25:59.514Z,99601.50
2022-09-20T22:28:45.151Z,99608.59
2022-09-20T22:31:32.711Z,99605.06
2022-09-20T22:34:22.464Z,99600.28
2022-09-20T22:37:07.902Z,99601.50
2022-09-20T22:39:53.061Z,99597.13
2022-09-20T22:42:38.217Z,99595.97
2022-09-20T22:45:23.730Z,99601.50
2022-09-20T22:48:09.144Z,99600.72
2022-09-20T22:51:18.419Z,99601.50
2022-09-20T22:54:09.149Z,99599.91
2022-09-20T22:56:54.212Z,99601.50
2022-09-20T22:59:39.614Z,99605.44
2022-09-20T23:02:24.863Z,99601.09
2022-09-20T23:05:10.990Z,99609.03
2022-09-20T23:07:56.641Z,99615.72
2022-09-20T23:10:41.811Z,99605.44
2022-09-20T23:13:27.079Z,99610.97
2022-09-20T23:16:12.595Z,99609.41
2022-09-20T23:19:00.102Z,99607.44
2022-09-20T23:21:45.648Z,99612.19
2022-09-20T23:24:31.144Z,99617.72
2022-09-20T23:27:16.750Z,99612.19
2022-09-20T23:30:01.964Z,99613.38
2022-09-20T23:32:47.998Z,99611.41
2022-09-20T23:35:34.234Z,99609.41
2022-09-20T23:38:19.355Z,99614.16
2022-09-20T23:41:06.771Z,99614.94
2022-09-20T23:43:52.218Z,99607.84
2022-09-20T23:46:38.812Z,99616.94
2022-09-20T23:49:24.236Z,99611.41
2022-09-20T23:52:09.431Z,99609.81
2022-09-20T23:54:54.634Z,99616.94
2022-09-20T23:57:39.887Z,99612.56
